createdAt,value
2022-08-02T00:01:39.749Z,25.08
2022-08-02T00:04:29.811Z,24.10
2022-08-02T00:07:19.576Z,19.25
2022-08-02T00:10:08.955Z,19.63
2022-08-02T00:12:56.154Z,18.90
2022-08-02T00:15:43.412Z,21.20
2022-08-02T00:18:31.104Z,14.80
2022-08-02T00:21:18.239Z,12.43
2022-08-02T00:24:29.284Z,10.07
2022-08-02T00:27:15.979Z,10.02
2022-08-02T00:30:03.645Z,10.20
2022-08-02T00:32:50.747Z,10.27
2022-08-02T00:35:40.485Z,11.65
2022-08-02T00:38:30.131Z,10.23
2022-08-02T00:41:24.049Z,8.85
2022-08-02T00:44:11.427Z,8.25
2022-08-02T00:47:00.128Z,7.90
2022-08-02T00:49:47.705Z,5.47
2022-08-02T00:52:34.872Z,6.35
2022-08-02T00:55:30.925Z,7.38
2022-08-02T00:58:18.776Z,6.45
2022-08-02T01:01:05.981Z,7.25
2022-08-02T01:03:53.143Z,5.82
2022-08-02T01:06:41.916Z,8.02
2022-08-02T01:09:29.047Z,6.60
2022-08-02T01:12:18.282Z,6.93
2022-08-02T01:15:08.949Z,8.30
2022-08-02T01:18:09.966Z,9.20
2022-08-02T01:21:15.723Z,5.35
2022-08-02T01:24:34.143Z,7.90
2022-08-02T01:27:42.273Z,7.32
2022-08-02T01:30:34.645Z,12.57
2022-08-02T01:33:26.614Z,8.90
2022-08-02T01:36:17.537Z,13.18
2022-08-02T01:39:11.604Z,9.32
2022-08-02T01:42:14.906Z,7.95
2022-08-02T01:45:06.375Z,9.25
2022-08-02T01:47:54.750Z,9.93
2022-08-02T01:50:43.819Z,9.27
2022-08-02T01:53:32.581Z,6.95
2022-08-02T01:56:20.517Z,9.18
2022-08-02T01:59:11.454Z,12.05
2022-08-02T02:02:01.253Z,10.52
2022-08-02T02:04:53.485Z,8.57
2022-08-02T02:07:46.520Z,7.57
2022-08-02T02:10:38.481Z,7.63
2022-08-02T02:13:33.602Z,8.98
2022-08-02T02:16:22.019Z,14.23
2022-08-02T02:19:12.702Z,12.30
2022-08-02T02:22:08.801Z,9.63
2022-08-02T02:25:00.514Z,10.40
2022-08-02T02:27:58.048Z,12.50
2022-08-02T02:30:55.330Z,6.45
2022-08-02T02:34:01.125Z,8.73
2022-08-02T02:36:52.751Z,7.05
2022-08-02T02:39:44.379Z,11.25
2022-08-02T02:42:35.540Z,10.07
2022-08-02T02:45:23.858Z,8.00
2022-08-02T02:48:14.677Z,8.32
2022-08-02T02:51:13.899Z,7.22
2022-08-02T02:54:32.101Z,7.90
2022-08-02T02:57:14.305Z,12.43
2022-08-02T03:00:02.982Z,6.38
2022-08-02T03:02:53.043Z,7.65
2022-08-02T03:05:44.866Z,7.80
2022-08-02T03:08:32.141Z,9.05
2022-08-02T03:11:20.018Z,7.90
2022-08-02T03:14:12.536Z,7.47
2022-08-02T03:16:59.740Z,9.05
2022-08-02T03:19:47.111Z,7.70
2022-08-02T03:22:36.334Z,7.00
2022-08-02T03:25:23.502Z,8.55
2022-08-02T03:28:10.601Z,6.72
2022-08-02T03:31:01.352Z,6.00
2022-08-02T03:33:49.137Z,9.43
2022-08-02T03:36:37.509Z,7.03
2022-08-02T03:39:26.680Z,6.18
2022-08-02T03:42:15.537Z,8.05
2022-08-02T03:45:08.410Z,7.32
2022-08-02T03:48:30.575Z,8.25
2022-08-02T03:51:15.437Z,7.57
2022-08-02T03:54:03.624Z,8.82
2022-08-02T03:56:53.384Z,8.73
2022-08-02T03:59:48.468Z,8.40
2022-08-02T04:02:53.772Z,8.45
2022-08-02T04:06:01.056Z,9.40
2022-08-02T04:08:53.017Z,10.10
2022-08-02T04:11:42.247Z,8.80
2022-08-02T04:14:35.671Z,13.75
2022-08-02T04:17:27.322Z,9.38
2022-08-02T04:20:24.576Z,12.77
2022-08-02T04:23:15.751Z,11.50
2022-08-02T04:26:04.855Z,6.63
2022-08-02T04:28:56.904Z,8.35
2022-08-02T04:31:44.160Z,11.20
2022-08-02T04:34:34.088Z,8.73
2022-08-02T04:37:26.196Z,9.35
2022-08-02T04:40:16.222Z,7.25
2022-08-02T04:43:03.525Z,5.88
2022-08-02T04:45:55.892Z,8.57
2022-08-02T04:48:43.116Z,8.85
2022-08-02T04:51:37.999Z,7.00
2022-08-02T04:54:25.846Z,10.38
2022-08-02T04:57:31.555Z,13.13
2022-08-02T05:00:18.769Z,6.95
2022-08-02T05:03:06.194Z,10.20
2022-08-02T05:05:53.360Z,10.90
2022-08-02T05:08:45.406Z,10.18
2022-08-02T05:11:40.224Z,8.57
2022-08-02T05:14:29.769Z,11.38
2022-08-02T05:17:17.023Z,11.40
2022-08-02T05:20:08.215Z,9.85
2022-08-02T05:22:55.433Z,9.30
2022-08-02T05:25:47.588Z,12.68
2022-08-02T05:28:35.557Z,8.65
2022-08-02T05:31:26.315Z,10.13
2022-08-02T05:34:18.241Z,10.70
2022-08-02T05:37:08.989Z,16.80
2022-08-02T05:40:17.964Z,8.63
2022-08-02T05:43:15.881Z,11.95
2022-08-02T05:46:03.085Z,8.88
2022-08-02T05:48:54.979Z,9.57
2022-08-02T05:51:52.423Z,9.00
2022-08-02T05:54:39.696Z,10.25
2022-08-02T05:57:43.350Z,6.45
2022-08-02T06:00:36.613Z,11.20
2022-08-02T06:03:38.539Z,6.32
2022-08-02T06:06:26.680Z,10.70
2022-08-02T06:09:23.028Z,8.90
2022-08-02T06:12:17.299Z,11.52
2022-08-02T06:15:07.330Z,11.27
2022-08-02T06:17:54.962Z,11.95
2022-08-02T06:20:45.219Z,8.90
2022-08-02T06:23:33.112Z,8.35
2022-08-02T06:26:28.225Z,9.20
2022-08-02T06:29:15.833Z,9.50
2022-08-02T06:32:03.513Z,7.82
2022-08-02T06:34:54.967Z,7.93
2022-08-02T06:37:50.273Z,7.57
2022-08-02T06:40:52.699Z,9.05
2022-08-02T06:43:55.950Z,9.10
2022-08-02T06:47:11.614Z,6.20
2022-08-02T06:49:57.152Z,12.15
2022-08-02T06:52:47.782Z,6.43
2022-08-02T06:55:43.313Z,8.68
2022-08-02T06:58:33.521Z,6.65
2022-08-02T07:01:21.069Z,5.10
2022-08-02T07:04:09.680Z,4.13
2022-08-02T07:06:57.366Z,5.88
2022-08-02T07:09:57.201Z,5.50
2022-08-02T07:12:51.023Z,5.22
2022-08-02T07:15:49.238Z,4.78
2022-08-02T07:18:41.288Z,6.00
2022-08-02T07:21:57.070Z,6.00
2022-08-02T07:24:42.338Z,4.07
2022-08-02T07:27:29.842Z,6.43
2022-08-02T07:30:21.699Z,5.88
2022-08-02T07:33:09.429Z,4.32
2022-08-02T07:36:22.347Z,8.77
2022-08-02T07:39:12.491Z,6.30
2022-08-02T07:41:59.765Z,5.20
2022-08-02T07:44:50.073Z,5.53
2022-08-02T07:47:41.731Z,3.92
2022-08-02T07:50:28.907Z,5.77
2022-08-02T07:53:16.063Z,5.63
2022-08-02T07:56:05.942Z,6.82
2022-08-02T07:58:54.166Z,5.18
2022-08-02T08:01:46.135Z,5.65
2022-08-02T08:04:33.471Z,5.78
2022-08-02T08:07:24.540Z,5.93
2022-08-02T08:10:14.072Z,4.55
2022-08-02T08:13:01.233Z,4.70
2022-08-02T08:15:52.310Z,6.03
2022-08-02T08:18:39.843Z,4.27
2022-08-02T08:21:31.655Z,3.92
2022-08-02T08:24:23.353Z,4.40
2022-08-02T08:27:15.419Z,6.55
2022-08-02T08:30:03.495Z,5.88
2022-08-02T08:32:50.777Z,5.10
2022-08-02T08:35:37.979Z,8.00
2022-08-02T08:38:25.184Z,4.75
2022-08-02T08:41:17.034Z,3.47
2022-08-02T08:44:04.643Z,3.30
2022-08-02T08:46:52.379Z,6.40
2022-08-02T08:49:52.747Z,3.70
2022-08-02T08:52:53.827Z,4.28
2022-08-02T08:55:44.863Z,3.35
2022-08-02T08:58:32.222Z,3.93
2022-08-02T09:01:19.644Z,4.57
2022-08-02T09:04:06.899Z,3.17
2022-08-02T09:06:54.117Z,4.60
2022-08-02T09:09:43.438Z,6.15
2022-08-02T09:12:33.176Z,8.10
2022-08-02T09:15:25.307Z,5.25
2022-08-02T09:21:02.302Z,4.43
2022-08-02T09:23:52.910Z,5.32
2022-08-02T09:26:42.175Z,3.33
2022-08-02T09:29:29.496Z,2.60
2022-08-02T09:32:19.346Z,2.88
2022-08-02T09:35:07.627Z,4.05
2022-08-02T09:38:09.947Z,4.93
2022-08-02T09:40:59.903Z,4.15
2022-08-02T09:44:03.928Z,4.32
2022-08-02T09:46:52.786Z,3.63
2022-08-02T09:49:52.400Z,4.80
2022-08-02T09:52:45.880Z,6.40
2022-08-02T09:55:38.009Z,5.00
2022-08-02T09:58:25.255Z,5.07
2022-08-02T10:01:15.123Z,5.18
2022-08-02T10:04:14.497Z,8.23
2022-08-02T10:07:10.436Z,7.40
2022-08-02T10:09:57.974Z,5.95
2022-08-02T10:12:45.159Z,8.38
2022-08-02T10:15:35.025Z,6.95
2022-08-02T10:18:37.761Z,4.85
2022-08-02T10:21:48.084Z,3.25
2022-08-02T10:24:39.522Z,5.75
2022-08-02T10:27:55.512Z,3.80
2022-08-02T10:30:48.551Z,3.63
2022-08-02T10:33:42.096Z,5.28
2022-08-02T10:36:33.990Z,3.20
2022-08-02T10:39:21.203Z,3.55
2022-08-02T10:42:09.094Z,3.58
2022-08-02T10:45:10.751Z,4.50
2022-08-02T10:48:03.720Z,3.85
2022-08-02T10:50:52.891Z,2.80
2022-08-02T10:53:40.179Z,2.53
2022-08-02T10:56:47.718Z,4.53
2022-08-02T10:59:36.770Z,4.10
2022-08-02T11:02:56.491Z,2.63
2022-08-02T11:05:43.938Z,2.50
2022-08-02T11:08:31.450Z,2.58
2022-08-02T11:11:19.506Z,1.67
2022-08-02T11:14:27.181Z,2.25
2022-08-02T11:17:20.742Z,1.90
2022-08-02T11:20:15.473Z,2.33
2022-08-02T11:23:44.698Z,3.53
2022-08-02T11:26:32.971Z,3.45
2022-08-02T11:29:20.672Z,5.15
2022-08-02T11:32:20.350Z,3.25
2022-08-02T11:35:08.094Z,2.42
2022-08-02T11:37:58.783Z,5.72
2022-08-02T11:40:47.365Z,1.73
2022-08-02T11:43:35.264Z,2.53
2022-08-02T11:46:24.517Z,1.95
2022-08-02T11:49:16.816Z,4.60
2022-08-02T11:52:06.440Z,2.50
2022-08-02T11:54:53.647Z,3.58
2022-08-02T11:58:04.699Z,1.80
2022-08-02T12:00:49.784Z,2.78
2022-08-02T12:03:40.598Z,2.08
2022-08-02T12:06:28.945Z,2.22
2022-08-02T12:09:18.671Z,2.28
2022-08-02T12:12:06.661Z,2.03
2022-08-02T12:14:53.872Z,4.75
2022-08-02T12:17:59.370Z,3.15
2022-08-02T12:20:46.783Z,1.50
2022-08-02T12:24:00.638Z,2.33
2022-08-02T12:26:48.663Z,2.22
2022-08-02T12:29:58.859Z,1.95
2022-08-02T12:32:45.946Z,2.08
2022-08-02T12:35:35.366Z,1.67
2022-08-02T12:38:25.519Z,2.13
2022-08-02T12:41:31.424Z,2.05
2022-08-02T12:44:19.766Z,5.85
2022-08-02T12:47:12.289Z,2.85
2022-08-02T12:50:18.055Z,4.10
2022-08-02T12:53:17.611Z,5.90
2022-08-02T12:56:05.028Z,4.40
2022-08-02T12:58:52.540Z,2.63
2022-08-02T13:01:41.170Z,2.00
2022-08-02T13:04:28.370Z,4.05
2022-08-02T13:07:17.933Z,2.75
2022-08-02T13:10:07.935Z,2.20
2022-08-02T13:12:55.222Z,4.30
2022-08-02T13:15:49.793Z,2.03
2022-08-02T13:18:39.058Z,1.83
2022-08-02T13:21:41.694Z,1.80
2022-08-02T13:24:55.883Z,4.03
2022-08-02T13:27:46.749Z,2.35
2022-08-02T13:30:36.621Z,2.10
2022-08-02T13:33:23.840Z,3.40
2022-08-02T13:36:11.148Z,2.30
2022-08-02T13:38:58.350Z,2.35
2022-08-02T13:41:45.675Z,1.90
2022-08-02T13:44:35.931Z,2.42
2022-08-02T13:47:36.432Z,2.85
2022-08-02T13:50:30.396Z,2.13
2022-08-02T13:53:17.796Z,3.20
2022-08-02T13:56:05.170Z,2.75
2022-08-02T13:58:52.552Z,3.22
2022-08-02T14:01:41.244Z,3.92
2022-08-02T14:04:30.768Z,3.28
2022-08-02T14:07:17.994Z,2.00
2022-08-02T14:10:05.920Z,2.10
2022-08-02T14:12:56.565Z,3.42
2022-08-02T14:15:49.113Z,2.13
2022-08-02T14:18:38.856Z,2.20
2022-08-02T14:21:25.943Z,4.07
2022-08-02T14:24:16.363Z,2.25
2022-08-02T14:27:03.798Z,4.07
2022-08-02T14:29:53.200Z,3.00
2022-08-02T14:32:42.564Z,1.88
2022-08-02T14:35:30.197Z,2.63
2022-08-02T14:38:19.261Z,4.47
2022-08-02T14:41:06.503Z,1.73
2022-08-02T14:44:05.734Z,3.55
2022-08-02T14:46:55.330Z,2.25
2022-08-02T14:49:45.968Z,2.47
2022-08-02T14:52:35.607Z,4.55
2022-08-02T14:55:25.217Z,2.10
2022-08-02T14:58:12.472Z,2.78
2022-08-02T15:01:04.107Z,5.25
2022-08-02T15:03:51.750Z,2.88
2022-08-02T15:06:38.888Z,2.97
2022-08-02T15:09:26.875Z,2.25
2022-08-02T15:12:14.497Z,2.75
2022-08-02T15:15:01.797Z,2.65
2022-08-02T15:17:48.920Z,2.47
2022-08-02T15:20:38.359Z,3.80
2022-08-02T15:23:37.320Z,3.97
2022-08-02T15:26:25.757Z,4.63
2022-08-02T15:29:13.055Z,3.85
2022-08-02T15:32:00.378Z,3.20
2022-08-02T15:34:50.200Z,2.10
2022-08-02T15:37:41.329Z,3.00
2022-08-02T15:40:28.968Z,4.38
2022-08-02T15:43:16.387Z,2.60
2022-08-02T15:46:06.597Z,6.07
2022-08-02T15:48:56.283Z,2.42
2022-08-02T15:51:43.741Z,2.30
2022-08-02T15:54:33.672Z,3.78
2022-08-02T15:57:23.815Z,3.35
2022-08-02T16:00:18.210Z,4.57
2022-08-02T16:03:06.071Z,6.13
2022-08-02T16:05:53.213Z,4.93
2022-08-02T16:08:44.622Z,3.65
2022-08-02T16:11:41.619Z,3.90
2022-08-02T16:14:37.638Z,3.47
2022-08-02T16:17:48.841Z,2.10
2022-08-02T16:20:32.071Z,2.50
2022-08-02T16:23:19.256Z,4.63
2022-08-02T16:26:29.216Z,2.40
2022-08-02T16:29:19.073Z,4.35
2022-08-02T16:32:06.897Z,2.20
2022-08-02T16:35:07.826Z,6.50
2022-08-02T16:37:56.497Z,3.92
2022-08-02T16:40:43.629Z,3.38
2022-08-02T16:43:30.748Z,2.38
2022-08-02T16:46:19.958Z,2.85
2022-08-02T16:50:09.733Z,3.60
2022-08-02T16:52:16.604Z,4.03
2022-08-02T16:55:11.320Z,4.45
2022-08-02T17:00:47.840Z,5.05
2022-08-02T17:03:57.137Z,5.28
2022-08-02T17:06:47.697Z,4.22
2022-08-02T17:10:03.944Z,6.25
2022-08-02T17:12:46.379Z,7.00
2022-08-02T17:18:47.163Z,3.97
2022-08-02T17:21:36.610Z,5.35
2022-08-02T17:24:26.125Z,3.63
2022-08-02T17:27:13.631Z,4.57
2022-08-02T17:30:05.732Z,5.18
2022-08-02T17:32:59.495Z,12.13
2022-08-02T17:35:52.890Z,10.25
2022-08-02T17:38:50.230Z,5.38
2022-08-02T17:41:49.040Z,4.88
2022-08-02T17:44:39.263Z,3.78
2022-08-02T17:47:30.866Z,4.30
2022-08-02T17:50:20.935Z,4.13
2022-08-02T17:53:10.588Z,4.22
2022-08-02T17:55:59.457Z,3.17
2022-08-02T17:58:52.029Z,3.10
2022-08-02T18:01:52.597Z,6.25
2022-08-02T18:04:40.895Z,3.80
2022-08-02T18:07:30.120Z,6.13
2022-08-02T18:10:39.244Z,4.53
2022-08-02T18:13:32.850Z,3.58
2022-08-02T18:16:20.883Z,4.15
2022-08-02T18:19:16.663Z,4.38
2022-08-02T18:22:06.709Z,4.68
2022-08-02T18:24:58.592Z,3.85
2022-08-02T18:27:45.758Z,4.75
2022-08-02T18:30:36.288Z,7.80
2022-08-02T18:36:32.686Z,7.65
2022-08-02T18:39:22.857Z,6.53
2022-08-02T18:42:10.498Z,4.22
2022-08-02T18:44:57.964Z,3.67
2022-08-02T18:47:51.099Z,5.68
2022-08-02T18:50:43.247Z,5.05
2022-08-02T18:53:41.692Z,4.20
2022-08-02T18:56:32.585Z,5.03
2022-08-02T18:59:20.289Z,5.13
2022-08-02T19:02:08.012Z,4.30
2022-08-02T19:04:55.622Z,4.32
2022-08-02T19:07:51.338Z,3.60
2022-08-02T19:10:49.969Z,5.90
2022-08-02T19:13:42.791Z,3.97
2022-08-02T19:16:37.155Z,6.55
2022-08-02T19:19:28.685Z,5.13
2022-08-02T19:25:35.373Z,6.18
2022-08-02T19:28:39.276Z,5.25
2022-08-02T19:31:34.828Z,4.22
2022-08-02T19:34:36.283Z,7.15
2022-08-02T19:37:24.241Z,5.30
2022-08-02T19:40:23.853Z,5.38
2022-08-02T19:46:23.001Z,7.63
2022-08-02T19:49:19.909Z,5.85
2022-08-02T19:52:21.079Z,7.75
2022-08-02T19:55:58.550Z,6.38
2022-08-02T19:58:19.153Z,9.00
2022-08-02T20:01:14.973Z,4.18
2022-08-02T20:04:07.685Z,8.98
2022-08-02T20:07:04.682Z,5.55
2022-08-02T20:09:56.449Z,8.90
2022-08-02T20:12:43.760Z,8.17
2022-08-02T20:18:38.392Z,7.07
2022-08-02T20:21:35.990Z,7.05
2022-08-02T20:24:26.756Z,6.80
2022-08-02T20:27:23.798Z,6.43
2022-08-02T20:30:13.445Z,5.70
2022-08-02T20:33:22.137Z,11.60
2022-08-02T20:36:09.381Z,5.47
2022-08-02T20:38:56.763Z,7.90
2022-08-02T20:41:53.017Z,5.97
2022-08-02T20:44:46.181Z,7.03
2022-08-02T20:47:39.406Z,7.38
2022-08-02T20:50:46.214Z,7.40
2022-08-02T20:53:36.587Z,8.18
2022-08-02T20:56:42.389Z,6.30
2022-08-02T20:59:31.784Z,5.65
2022-08-02T21:02:20.217Z,5.55
2022-08-02T21:05:17.236Z,7.60
2022-08-02T21:08:13.965Z,9.02
2022-08-02T21:11:01.470Z,13.43
2022-08-02T21:17:08.694Z,10.07
2022-08-02T21:19:58.665Z,6.97
2022-08-02T21:22:48.365Z,7.70
2022-08-02T21:25:50.625Z,6.68
2022-08-02T21:28:46.780Z,10.27
2022-08-02T21:31:38.469Z,7.85
2022-08-02T21:34:28.567Z,7.75
2022-08-02T21:37:18.402Z,6.63
2022-08-02T21:40:09.578Z,13.50
2022-08-02T21:42:59.465Z,8.20
2022-08-02T21:45:53.499Z,7.53
2022-08-02T21:48:42.871Z,7.43
2022-08-02T21:51:33.966Z,8.20
2022-08-02T21:54:22.090Z,9.10
2022-08-02T21:57:15.513Z,8.27
2022-08-02T22:00:09.719Z,11.05
2022-08-02T22:02:59.034Z,8.75
2022-08-02T22:06:06.598Z,6.72
2022-08-02T22:08:56.982Z,11.98
2022-08-02T22:11:46.610Z,7.38
2022-08-02T22:14:35.355Z,6.82
2022-08-02T22:17:51.543Z,18.50
2022-08-02T22:20:33.726Z,9.35
2022-08-02T22:23:22.583Z,7.22
2022-08-02T22:26:26.499Z,8.13
2022-08-02T22:29:15.496Z,8.93
2022-08-02T22:32:02.812Z,7.10
2022-08-02T22:34:51.703Z,7.35
2022-08-02T22:38:15.464Z,6.97
2022-08-02T22:40:47.885Z,8.57
2022-08-02T22:43:39.652Z,6.25
2022-08-02T22:46:27.260Z,10.90
2022-08-02T22:49:38.556Z,6.90
2022-08-02T22:52:28.588Z,8.45
2022-08-02T22:55:15.838Z,5.28
2022-08-02T22:58:05.367Z,6.13
2022-08-02T22:58:44.771Z,4.30
2022-08-02T22:58:54.954Z,7.72
2022-08-02T22:58:57.786Z,5.10
2022-08-02T22:59:06.305Z,6.55
2022-08-02T22:59:12.142Z,6.95
2022-08-02T23:00:56.898Z,7.05
2022-08-02T23:47:58.859Z,10.60
2022-08-02T23:50:46.171Z,10.95
2022-08-02T23:53:35.974Z,11.13
2022-08-02T23:56:25.703Z,7.60
2022-08-02T23:59:13.123Z,9.02
